Terminal Aerodrome Forecast
Issued by NWS

Home | Current Version | Previous Version | Text Only | Print | Product List | Glossary On
Versions: 1 2 3 4 5 6 7 8 9 10 11 12 13 14 15 16 17 18 19 20 21 22
000
FTUS43 KLSX 171100
TAFUIN
TAF
KUIN 171130Z 1712/1812 16005KT P6SM BKN060
     FM171400 17006KT P6SM SCT020 OVC050
      TEMPO 1714/1718 BKN020 OVC050
     FM180000 11003KT P6SM SCT050=

USA.gov is the U.S. government's official web portal to all federal, state and local government web resources and services.